Time;durP1;ratioP1;P1;durP2;ratioP2;P2;SDS_P1;SDS_P2;PMS_P1;PMS_P2;Temp;Humidity;BMP_temperature;BMP_pressure;BME280_temperature;BME280_humidity;BME280_pressure;Samples;Min_cycle;Max_cycle;Signal;HPM_P1;HPM_P2
2022/11/07 00:02:54;;;;;;;8.60;4.00;;;15.00;58.40;;;;;;6232519;28;20041;-75
2022/11/07 00:05:55;;;;;;;7.82;3.90;;;15.00;58.40;;;;;;6257820;28;20032;-76
2022/11/07 00:08:57;;;;;;;7.32;3.67;;;14.90;58.30;;;;;;6233664;28;20523;-75
2022/11/07 00:11:59;;;;;;;7.50;4.22;;;14.90;58.30;;;;;;6256258;28;20039;-76
2022/11/07 00:15:01;;;;;;;7.43;3.75;;;14.80;58.40;;;;;;6220908;28;20042;-76
2022/11/07 00:18:02;;;;;;;6.03;3.50;;;14.80;58.40;;;;;;6225243;28;20434;-76
2022/11/07 00:21:06;;;;;;;17.67;4.68;;;14.80;58.50;;;;;;6240171;28;20041;-75
2022/11/07 00:24:07;;;;;;;10.88;4.43;;;14.70;58.50;;;;;;6256880;28;20048;-77
2022/11/07 00:27:08;;;;;;;8.15;3.22;;;14.70;58.50;;;;;;6238644;28;20120;-76
2022/11/07 00:30:11;;;;;;;10.20;3.55;;;14.60;58.60;;;;;;6249482;28;20355;-76
2022/11/07 00:33:12;;;;;;;7.88;2.78;;;14.50;58.60;;;;;;6235509;28;20049;-77
2022/11/07 00:36:25;;;;;;;4.88;2.30;;;14.50;58.70;;;;;;6253102;28;20106;-77
2022/11/07 00:39:26;;;;;;;6.45;3.05;;;14.40;58.70;;;;;;6239317;28;20036;-77
2022/11/07 00:42:27;;;;;;;5.50;2.97;;;14.40;59.30;;;;;;6255147;28;20124;-75
2022/11/07 00:45:28;;;;;;;4.35;2.40;;;14.40;58.80;;;;;;6248083;28;20045;-77
2022/11/07 00:48:29;;;;;;;4.07;1.92;;;14.40;58.80;;;;;;6231704;28;20461;-76
2022/11/07 00:51:30;;;;;;;7.50;2.20;;;14.30;58.70;;;;;;6233065;28;20040;-76
2022/11/07 00:54:31;;;;;;;7.32;2.70;;;14.30;58.70;;;;;;6224696;28;20048;-76
2022/11/07 00:57:32;;;;;;;10.88;2.50;;;14.30;58.70;;;;;;6209048;28;20049;-76
2022/11/07 01:00:33;;;;;;;7.47;2.50;;;14.20;58.60;;;;;;6234846;28;20037;-76
2022/11/07 01:06:55;;;;;;;8.13;2.65;;;14.20;58.90;;;;;;6239518;28;20071;-76
2022/11/07 01:09:56;;;;;;;10.27;2.80;;;14.20;58.60;;;;;;6240957;28;20431;-76
2022/11/07 01:12:57;;;;;;;6.95;2.90;;;14.20;58.60;;;;;;6238488;28;20026;-76
2022/11/07 01:15:58;;;;;;;7.97;3.00;;;14.20;58.70;;;;;;6243131;28;20493;-76
2022/11/07 01:19:00;;;;;;;5.30;2.53;;;14.20;58.70;;;;;;6234413;28;20049;-76
2022/11/07 01:22:01;;;;;;;3.88;2.40;;;14.10;58.70;;;;;;6238213;28;20061;-76
2022/11/07 01:25:02;;;;;;;5.38;3.10;;;14.20;58.80;;;;;;6250290;28;20025;-75
2022/11/07 01:28:04;;;;;;;10.88;3.08;;;14.10;58.90;;;;;;6247394;28;20137;-75
2022/11/07 01:31:08;;;;;;;8.65;3.55;;;14.10;59.00;;;;;;6234456;28;20040;-75
2022/11/07 01:34:10;;;;;;;8.70;3.63;;;14.10;59.20;;;;;;6233513;28;20041;-76
2022/11/07 01:37:11;;;;;;;8.45;3.75;;;14.00;59.30;;;;;;6225313;28;20036;-77
2022/11/07 01:40:12;;;;;;;8.35;3.65;;;14.00;59.60;;;;;;6260086;28;20026;-76
2022/11/07 01:43:13;;;;;;;7.18;3.70;;;13.90;59.70;;;;;;6234261;28;20507;-76
2022/11/07 01:46:15;;;;;;;7.65;4.28;;;13.90;60.00;;;;;;6239654;28;20036;-75
2022/11/07 01:49:19;;;;;;;12.98;4.70;;;13.90;60.30;;;;;;6224181;28;20022;-76
2022/11/07 01:52:31;;;;;;;8.23;3.63;;;13.80;60.50;;;;;;6250047;28;20030;-75
2022/11/07 01:55:34;;;;;;;9.85;4.70;;;13.80;60.90;;;;;;6236385;28;20084;-76
2022/11/07 01:58:34;;;;;;;14.38;4.03;;;13.80;61.10;;;;;;6231876;28;20037;-76
2022/11/07 02:01:36;;;;;;;6.15;3.08;;;13.80;61.20;;;;;;6238774;28;20041;-77
2022/11/07 02:04:37;;;;;;;6.80;3.70;;;13.80;61.30;;;;;;6222612;28;20030;-76
2022/11/07 02:07:39;;;;;;;5.00;2.38;;;13.70;61.10;;;;;;6235432;28;20136;-76
2022/11/07 02:10:42;;;;;;;4.32;2.63;;;13.80;60.90;;;;;;6252892;28;20033;-76
2022/11/07 02:13:43;;;;;;;5.45;2.85;;;13.70;60.30;;;;;;6252215;28;20026;-77
2022/11/07 02:16:45;;;;;;;4.60;2.15;;;13.70;60.00;;;;;;6234543;28;20075;-77
2022/11/07 02:19:55;;;;;;;5.78;2.58;;;13.70;59.90;;;;;;6249064;28;20040;-76
2022/11/07 02:23:04;;;;;;;7.75;2.50;;;13.60;59.70;;;;;;6249127;28;20362;-75
2022/11/07 02:26:05;;;;;;;4.57;2.17;;;13.60;59.50;;;;;;6254613;28;20094;-76
2022/11/07 02:29:08;;;;;;;2.40;1.60;;;13.50;59.30;;;;;;6250161;28;20037;-77
2022/11/07 02:32:11;;;;;;;4.60;2.00;;;13.50;59.20;;;;;;6235167;28;20400;-76
2022/11/07 02:35:36;;;;;;;4.10;1.92;;;13.40;59.00;;;;;;6248262;28;20048;-76
2022/11/07 02:38:39;;;;;;;8.38;2.08;;;13.40;59.10;;;;;;6250811;28;20049;-75
2022/11/07 02:41:40;;;;;;;4.45;2.20;;;13.40;59.00;;;;;;6235303;28;20429;-76
2022/11/07 02:44:41;;;;;;;3.55;1.70;;;13.40;58.90;;;;;;6229378;28;20033;-75
2022/11/07 02:47:42;;;;;;;2.45;1.75;;;13.30;58.80;;;;;;6214183;28;20049;-76
2022/11/07 02:50:43;;;;;;;13.70;2.60;;;13.30;58.80;;;;;;6232906;28;20128;-76
2022/11/07 02:53:45;;;;;;;4.78;2.40;;;13.30;58.80;;;;;;6255164;28;20086;-76
2022/11/07 02:56:46;;;;;;;6.90;2.55;;;13.30;58.90;;;;;;6259446;28;20558;-75
2022/11/07 02:59:48;;;;;;;3.88;1.85;;;13.20;58.90;;;;;;6238941;28;20087;-76
2022/11/07 03:02:49;;;;;;;5.25;2.80;;;13.20;59.00;;;;;;6235114;28;20032;-76
2022/11/07 03:05:50;;;;;;;6.07;2.38;;;13.20;59.10;;;;;;6247831;28;21299;-76
2022/11/07 03:08:51;;;;;;;4.35;2.25;;;13.20;59.20;;;;;;6237116;28;20052;-76
2022/11/07 03:11:52;;;;;;;6.60;2.80;;;13.10;59.20;;;;;;6218790;28;20061;-75
2022/11/07 03:14:53;;;;;;;7.93;2.35;;;13.10;59.30;;;;;;6217843;28;20029;-76
2022/11/07 03:17:57;;;;;;;5.43;2.33;;;13.10;59.30;;;;;;6231317;28;20508;-76
2022/11/07 03:20:58;;;;;;;4.32;2.20;;;13.10;59.50;;;;;;6256885;28;20037;-76
2022/11/07 03:23:59;;;;;;;3.60;1.90;;;13.00;59.60;;;;;;6236348;28;20061;-75
2022/11/07 03:27:00;;;;;;;3.72;2.03;;;13.10;59.70;;;;;;6230670;28;20034;-76
2022/11/07 03:30:01;;;;;;;7.38;2.40;;;13.00;59.60;;;;;;6228875;28;20033;-76
2022/11/07 03:33:02;;;;;;;5.13;2.22;;;13.00;59.60;;;;;;6227739;28;20061;-75
2022/11/07 03:36:03;;;;;;;3.78;1.92;;;13.00;59.60;;;;;;6234078;28;20056;-75
2022/11/07 03:39:04;;;;;;;3.85;1.98;;;13.00;59.60;;;;;;6236467;28;20034;-76
2022/11/07 03:42:06;;;;;;;3.55;2.33;;;12.90;59.60;;;;;;6234657;28;20033;-76
2022/11/07 03:45:08;;;;;;;5.57;2.25;;;12.90;59.70;;;;;;6217797;28;20030;-76
2022/11/07 03:48:09;;;;;;;8.35;2.03;;;12.90;59.70;;;;;;6232954;28;20056;-77
2022/11/07 03:51:11;;;;;;;4.75;2.13;;;12.90;59.60;;;;;;6234728;28;20453;-76
2022/11/07 03:54:12;;;;;;;3.45;2.00;;;12.90;59.50;;;;;;6254632;28;20041;-77
2022/11/07 03:57:13;;;;;;;2.60;1.63;;;12.90;59.40;;;;;;6236161;28;20431;-76
2022/11/07 04:00:14;;;;;;;6.95;2.42;;;12.90;59.40;;;;;;6233889;28;20382;-76
2022/11/07 04:03:16;;;;;;;5.88;3.03;;;12.90;59.40;;;;;;6231729;28;20034;-75
2022/11/07 04:06:17;;;;;;;5.15;2.92;;;12.90;59.50;;;;;;6243927;28;20195;-76
2022/11/07 04:09:18;;;;;;;5.57;2.80;;;12.90;59.70;;;;;;6232060;28;20044;-75
2022/11/07 04:19:01;;;;;;;12.15;4.13;;;12.70;60.80;;;;;;6243901;28;20128;-76
2022/11/07 04:22:02;;;;;;;17.27;3.55;;;12.70;61.20;;;;;;6231423;28;20029;-75
2022/11/07 04:25:03;;;;;;;8.48;4.15;;;12.70;61.60;;;;;;6234218;28;20116;-75
2022/11/07 04:28:04;;;;;;;6.47;3.60;;;12.60;61.90;;;;;;6239455;28;20382;-76
2022/11/07 04:31:05;;;;;;;8.13;2.40;;;12.60;62.00;;;;;;6248437;28;20037;-75
2022/11/07 04:34:06;;;;;;;6.03;2.30;;;12.50;61.80;;;;;;6251026;28;20048;-75
2022/11/07 04:37:07;;;;;;;6.97;2.20;;;12.50;61.60;;;;;;6254907;28;20034;-76
2022/11/07 04:40:09;;;;;;;5.65;2.33;;;12.50;61.10;;;;;;6249709;28;20395;-78
2022/11/07 04:43:10;;;;;;;3.50;1.75;;;12.50;60.80;;;;;;6238454;28;20433;-76
2022/11/07 04:46:12;;;;;;;9.98;2.45;;;12.50;60.80;;;;;;6255845;28;20033;-76
2022/11/07 04:49:14;;;;;;;4.60;2.05;;;12.50;60.60;;;;;;6255726;28;20101;-77
2022/11/07 04:52:15;;;;;;;6.50;1.85;;;12.50;61.30;;;;;;6257574;28;20029;-76
2022/11/07 04:55:25;;;;;;;4.45;1.85;;;12.50;60.40;;;;;;6253658;28;20098;-76
2022/11/07 04:58:26;;;;;;;3.67;1.80;;;12.40;60.20;;;;;;6251359;28;20359;-77
2022/11/07 05:01:27;;;;;;;4.80;1.90;;;12.40;60.00;;;;;;6254699;28;20045;-77
2022/11/07 05:04:28;;;;;;;3.25;1.70;;;12.40;59.60;;;;;;6250721;28;20033;-76
2022/11/07 05:07:29;;;;;;;4.70;2.25;;;12.40;59.60;;;;;;6238396;28;20498;-77
2022/11/07 05:10:30;;;;;;;1.83;1.40;;;12.30;59.40;;;;;;6225652;28;20061;-76
2022/11/07 05:13:31;;;;;;;3.47;1.95;;;12.30;59.40;;;;;;6239196;28;20087;-76
2022/11/07 05:16:33;;;;;;;7.78;1.95;;;12.20;59.50;;;;;;6216248;28;20089;-75
2022/11/07 05:19:34;;;;;;;20.10;1.95;;;12.20;59.60;;;;;;6235139;28;20033;-75
2022/11/07 05:25:55;;;;;;;3.30;1.90;;;12.20;59.60;;;;;;6249337;28;20051;-75
2022/11/07 05:28:56;;;;;;;4.00;2.22;;;12.20;59.60;;;;;;6236668;28;20045;-76
2022/11/07 05:31:57;;;;;;;5.40;1.70;;;12.20;59.60;;;;;;6235330;28;20486;-76
2022/11/07 05:34:58;;;;;;;4.40;1.95;;;12.20;59.60;;;;;;6222160;28;20088;-75
2022/11/07 05:37:59;;;;;;;5.72;2.10;;;12.30;59.50;;;;;;6241827;28;20094;-76
2022/11/07 05:41:04;;;;;;;2.45;1.30;;;12.20;59.30;;;;;;6232516;28;20422;-77
2022/11/07 05:44:05;;;;;;;3.60;1.80;;;12.20;59.00;;;;;;6233591;28;20033;-76
2022/11/07 05:47:06;;;;;;;3.35;1.70;;;12.20;58.80;;;;;;6250109;28;20470;-76
2022/11/07 05:50:07;;;;;;;1.98;1.42;;;12.20;58.80;;;;;;6250663;28;20038;-76
2022/11/07 05:53:10;;;;;;;3.80;2.10;;;12.20;58.80;;;;;;6254193;28;20049;-76
2022/11/07 05:56:11;;;;;;;6.40;2.38;;;12.10;58.70;;;;;;6235998;28;20045;-76
2022/11/07 05:59:14;;;;;;;6.40;2.42;;;12.20;58.80;;;;;;6241147;28;20450;-76
2022/11/07 06:02:15;;;;;;;5.47;2.97;;;12.10;59.10;;;;;;6227719;28;20068;-76
2022/11/07 06:05:16;;;;;;;7.13;2.92;;;12.10;59.60;;;;;;6250688;28;20571;-76
2022/11/07 06:08:17;;;;;;;6.78;3.13;;;12.00;60.20;;;;;;6253982;28;20665;-76
2022/11/07 06:11:17;;;;;;;6.53;3.60;;;12.00;60.80;;;;;;6221773;28;20040;-75
2022/11/07 06:14:18;;;;;;;6.75;4.10;;;12.00;61.30;;;;;;6244430;28;20053;-76
2022/11/07 06:17:20;;;;;;;11.25;4.38;;;11.90;61.60;;;;;;6253001;28;20037;-75
2022/11/07 06:20:21;;;;;;;16.85;4.57;;;11.90;62.00;;;;;;6233918;28;20048;-77
2022/11/07 06:23:22;;;;;;;9.27;4.43;;;11.90;62.40;;;;;;6221597;28;20474;-76
2022/11/07 06:26:23;;;;;;;9.98;4.55;;;11.80;62.40;;;;;;6253209;28;20041;-76
2022/11/07 06:29:24;;;;;;;8.07;4.18;;;11.80;62.50;;;;;;6235539;28;20055;-76
2022/11/07 06:32:26;;;;;;;9.55;4.50;;;11.80;62.70;;;;;;6249382;28;20516;-76
2022/11/07 06:35:28;;;;;;;9.23;4.78;;;11.90;63.10;;;;;;6220874;28;20033;-77
2022/11/07 06:38:29;;;;;;;11.30;4.50;;;11.90;63.30;;;;;;6222478;28;20087;-76
2022/11/07 06:41:30;;;;;;;7.43;4.28;;;11.90;63.50;;;;;;6240411;28;20124;-76
2022/11/07 06:44:31;;;;;;;17.95;5.05;;;11.90;63.70;;;;;;6240601;28;20054;-76
2022/11/07 06:47:32;;;;;;;7.63;3.95;;;11.80;63.70;;;;;;6208831;28;20071;-76
2022/11/07 06:50:34;;;;;;;12.13;3.75;;;11.80;64.10;;;;;;6256353;28;20034;-76
2022/11/07 06:53:35;;;;;;;15.40;4.13;;;11.80;64.30;;;;;;6236602;28;20179;-76
2022/11/07 06:56:36;;;;;;;10.20;4.10;;;11.80;64.30;;;;;;6222573;28;20041;-76
2022/11/07 06:59:38;;;;;;;8.95;4.75;;;11.80;64.30;;;;;;6231023;28;20150;-76
2022/11/07 07:02:39;;;;;;;7.93;4.38;;;11.80;64.40;;;;;;6242223;28;20117;-75
2022/11/07 07:05:40;;;;;;;15.50;4.68;;;11.80;64.60;;;;;;6251745;28;20043;-75
2022/11/07 07:08:41;;;;;;;7.78;4.15;;;11.70;64.90;;;;;;6217863;28;20048;-76
2022/11/07 07:11:43;;;;;;;8.05;4.25;;;11.70;65.10;;;;;;6252527;28;20041;-76
2022/11/07 07:14:44;;;;;;;7.68;3.90;;;11.70;65.40;;;;;;6245431;28;20064;-77
2022/11/07 07:17:45;;;;;;;10.23;4.20;;;11.60;65.40;;;;;;6233773;28;20029;-76
2022/11/07 07:20:50;;;;;;;7.78;4.07;;;11.60;65.70;;;;;;6228122;28;20040;-76
2022/11/07 07:23:51;;;;;;;8.45;4.55;;;11.60;65.90;;;;;;6234174;28;20045;-76
2022/11/07 07:26:52;;;;;;;7.25;3.97;;;11.60;66.10;;;;;;6249645;28;20453;-77
2022/11/07 07:29:53;;;;;;;7.78;3.85;;;11.60;66.10;;;;;;6233741;28;20129;-76
2022/11/07 07:32:54;;;;;;;9.27;4.55;;;11.60;66.10;;;;;;6246311;28;20066;-77
2022/11/07 07:35:55;;;;;;;10.75;4.38;;;11.60;66.20;;;;;;6233239;28;20124;-75
2022/11/07 07:38:56;;;;;;;6.43;3.58;;;11.60;66.20;;;;;;6235686;28;20052;-76
2022/11/07 07:41:57;;;;;;;8.40;3.90;;;11.70;66.10;;;;;;6235575;28;20446;-75
2022/11/07 07:44:58;;;;;;;11.05;3.97;;;11.80;66.00;;;;;;6223435;28;20048;-76
2022/11/07 07:48:01;;;;;;;7.88;4.05;;;11.90;65.80;;;;;;6237189;28;20058;-76
2022/11/07 07:51:03;;;;;;;7.97;3.75;;;11.90;65.70;;;;;;6211575;28;20102;-78
2022/11/07 07:54:04;;;;;;;16.17;4.10;;;12.00;65.60;;;;;;6237826;28;20034;-76
2022/11/07 07:57:05;;;;;;;6.88;3.42;;;12.10;65.40;;;;;;6217472;28;20099;-76
2022/11/07 08:00:08;;;;;;;4.28;1.98;;;12.20;65.00;;;;;;6239861;28;20420;-77
2022/11/07 08:03:12;;;;;;;4.57;1.85;;;12.30;63.80;;;;;;6251425;28;20037;-76
2022/11/07 08:06:13;;;;;;;2.95;1.40;;;12.30;62.10;;;;;;6219724;28;20579;-76
2022/11/07 08:09:14;;;;;;;3.63;2.28;;;12.40;61.00;;;;;;6230703;28;20042;-76
2022/11/07 08:12:15;;;;;;;7.70;2.03;;;12.40;60.00;;;;;;6252811;28;20450;-76
2022/11/07 08:15:18;;;;;;;3.50;1.50;;;12.50;59.40;;;;;;6249863;28;20467;-75
2022/11/07 08:18:20;;;;;;;2.95;1.90;;;12.60;58.90;;;;;;6235018;28;20041;-75
2022/11/07 08:21:22;;;;;;;5.03;1.85;;;12.70;58.50;;;;;;6250797;28;20114;-76
2022/11/07 08:24:23;;;;;;;7.53;1.95;;;12.70;58.20;;;;;;6232613;28;20037;-76
2022/11/07 08:27:24;;;;;;;4.70;2.47;;;12.80;58.20;;;;;;6251286;28;20042;-78
2022/11/07 08:30:25;;;;;;;7.97;3.08;;;12.90;58.20;;;;;;6253107;28;20116;-76
2022/11/07 08:33:27;;;;;;;7.80;3.65;;;13.00;58.20;;;;;;6219611;28;20049;-75
2022/11/07 08:36:28;;;;;;;6.97;3.83;;;13.20;58.30;;;;;;6253014;28;20033;-75
2022/11/07 08:39:29;;;;;;;13.30;4.25;;;13.30;58.50;;;;;;6251667;28;20576;-76
2022/11/07 08:42:30;;;;;;;9.20;5.10;;;13.40;58.60;;;;;;6248187;28;20148;-76
2022/11/07 08:45:31;;;;;;;11.27;4.15;;;13.50;58.90;;;;;;6253798;28;20037;-77
2022/11/07 08:48:34;;;;;;;8.25;4.10;;;13.60;59.10;;;;;;6242962;28;20033;-78
2022/11/07 08:51:35;;;;;;;10.35;5.25;;;13.70;59.20;;;;;;6258205;28;20041;-77
2022/11/07 08:54:36;;;;;;;12.13;4.68;;;13.80;59.30;;;;;;6258644;28;20576;-77
2022/11/07 08:57:37;;;;;;;9.75;5.35;;;13.90;59.40;;;;;;6236252;28;20037;-77
2022/11/07 09:00:38;;;;;;;10.63;5.03;;;13.90;59.70;;;;;;6242135;28;20033;-76
2022/11/07 09:03:39;;;;;;;11.80;5.38;;;13.90;59.90;;;;;;6252992;28;20051;-77
2022/11/07 09:06:41;;;;;;;9.15;4.85;;;13.90;60.90;;;;;;6230134;28;20037;-75
2022/11/07 09:09:42;;;;;;;9.80;4.68;;;14.00;60.10;;;;;;6234785;28;20036;-76
2022/11/07 09:12:45;;;;;;;12.63;6.47;;;14.10;60.10;;;;;;6238903;28;20308;-76
2022/11/07 09:15:46;;;;;;;15.02;7.03;;;14.10;60.00;;;;;;6239707;28;20064;-76
2022/11/07 09:18:48;;;;;;;16.20;6.75;;;14.10;59.90;;;;;;6257475;28;20029;-76
2022/11/07 09:21:49;;;;;;;11.68;5.95;;;14.20;59.90;;;;;;6238888;28;20055;-76
2022/11/07 09:24:51;;;;;;;11.68;5.90;;;14.30;59.70;;;;;;6255701;28;20363;-77
2022/11/07 09:27:52;;;;;;;10.95;4.78;;;14.40;59.40;;;;;;6252987;28;20075;-77
2022/11/07 09:30:55;;;;;;;10.95;5.30;;;14.50;59.40;;;;;;6235705;28;20026;-76
2022/11/07 09:33:57;;;;;;;7.72;4.47;;;14.60;59.10;;;;;;6246069;28;20485;-76
2022/11/07 09:36:58;;;;;;;12.80;5.78;;;14.60;58.90;;;;;;6253240;28;20041;-77
2022/11/07 09:39:59;;;;;;;11.85;5.53;;;14.70;58.90;;;;;;6235466;28;20111;-76
2022/11/07 09:43:17;;;;;;;20.00;4.82;;;14.70;58.70;;;;;;6254274;28;20110;-77
2022/11/07 09:46:58;;;;;;;11.60;6.00;;;14.90;58.80;;;;;;6228316;28;20033;-77
2022/11/07 09:50:10;;;;;;;11.18;5.50;;;15.00;58.50;;;;;;6174722;28;20046;-76
2022/11/07 09:53:27;;;;;;;13.57;5.28;;;15.10;58.20;;;;;;6178880;28;20742;-76
2022/11/07 09:56:31;;;;;;;13.30;4.65;;;15.40;57.60;;;;;;6177867;28;20348;-78
2022/11/07 09:59:44;;;;;;;11.77;5.13;;;15.70;57.20;;;;;;6164692;28;20083;-77
2022/11/07 10:02:56;;;;;;;15.30;6.10;;;16.00;56.40;;;;;;6173475;28;20026;-77
2022/11/07 10:06:04;;;;;;;10.13;5.43;;;16.30;55.90;;;;;;6182180;28;20039;-76
2022/11/07 10:09:24;;;;;;;;;;;16.60;54.90;;;;;;6163535;28;20042;-77
2022/11/07 10:12:55;;;;;;;9.07;4.87;;;16.80;54.50;;;;;;6178775;28;19961;-76
2022/11/07 10:16:02;;;;;;;12.30;5.00;;;17.00;54.20;;;;;;6162984;28;20281;-76
2022/11/07 10:19:30;;;;;;;9.80;4.93;;;17.20;53.80;;;;;;6158390;28;20121;-76
2022/11/07 10:22:34;;;;;;;11.63;4.72;;;17.30;53.30;;;;;;6152090;28;20487;-77
2022/11/07 10:25:47;;;;;;;9.05;4.32;;;17.50;52.90;;;;;;6169610;28;20107;-77
2022/11/07 10:29:12;;;;;;;8.07;4.05;;;17.60;52.70;;;;;;6231824;28;20401;-77
2022/11/07 10:32:38;;;;;;;6.13;3.53;;;17.80;52.20;;;;;;6225865;28;20041;-76
2022/11/07 10:35:46;;;;;;;10.02;3.88;;;17.90;51.40;;;;;;6221847;28;20092;-76
2022/11/07 10:38:48;;;;;;;8.02;4.15;;;18.00;51.20;;;;;;6203429;28;20033;-75
2022/11/07 10:42:14;;;;;;;8.30;4.00;;;18.20;51.00;;;;;;6186180;28;20414;-78
2022/11/07 10:45:16;;;;;;;11.13;5.15;;;18.40;50.90;;;;;;6221271;28;20112;-78
2022/11/07 10:48:18;;;;;;;6.20;3.67;;;18.60;50.20;;;;;;6208861;28;20042;-77
2022/11/07 10:51:19;;;;;;;9.82;3.63;;;18.80;49.70;;;;;;6207162;28;20494;-76
2022/11/07 10:54:28;;;;;;;6.75;3.35;;;19.20;49.00;;;;;;6198880;28;20483;-76
2022/11/07 10:57:29;;;;;;;6.38;3.00;;;19.40;48.60;;;;;;6213223;28;20057;-76
2022/11/07 11:00:40;;;;;;;10.57;4.07;;;19.80;47.80;;;;;;6225586;28;20230;-76
2022/11/07 11:03:44;;;;;;;5.05;2.83;;;20.20;47.10;;;;;;6201922;28;20030;-75
2022/11/07 11:06:58;;;;;;;7.28;3.50;;;20.60;46.40;;;;;;6175750;28;20034;-77
2022/11/07 11:09:59;;;;;;;5.72;3.17;;;21.00;45.20;;;;;;6223023;28;20489;-77
2022/11/07 11:13:00;;;;;;;6.43;3.35;;;21.50;44.30;;;;;;6218364;28;20038;-77
2022/11/07 11:16:23;;;;;;;6.32;3.30;;;21.80;43.30;;;;;;6205925;28;20033;-77
2022/11/07 11:19:27;;;;;;;7.93;3.22;;;22.20;42.50;;;;;;6198703;28;20041;-76
2022/11/07 11:22:28;;;;;;;4.65;2.85;;;22.40;41.20;;;;;;6201771;28;20042;-76
2022/11/07 11:25:29;;;;;;;5.63;2.85;;;22.60;40.80;;;;;;6211904;28;20386;-78
2022/11/07 11:28:35;;;;;;;9.90;2.97;;;22.80;40.80;;;;;;6228323;28;20050;-77
2022/11/07 11:31:51;;;;;;;8.80;3.17;;;23.00;40.50;;;;;;6214822;28;20091;-78
2022/11/07 11:34:56;;;;;;;5.25;3.35;;;23.30;40.20;;;;;;6234218;28;20042;-78
2022/11/07 11:38:23;;;;;;;3.65;2.28;;;23.50;39.80;;;;;;6216102;28;20033;-78
2022/11/07 11:41:36;;;;;;;5.40;2.70;;;23.70;39.40;;;;;;6255605;28;20040;-77
2022/11/07 11:44:42;;;;;;;4.82;2.85;;;23.90;38.60;;;;;;6231797;28;20374;-78
2022/11/07 11:47:59;;;;;;;7.75;2.88;;;24.20;38.30;;;;;;6241830;28;20033;-78
2022/11/07 11:51:09;;;;;;;4.65;2.35;;;24.30;37.30;;;;;;6238865;28;20115;-76
2022/11/07 11:54:13;;;;;;;5.43;3.22;;;23.90;37.80;;;;;;6253550;28;20045;-79
2022/11/07 11:57:20;;;;;;;7.57;2.53;;;23.40;37.80;;;;;;6255815;28;20462;-77
2022/11/07 12:00:23;;;;;;;4.88;2.35;;;22.90;38.00;;;;;;6234864;28;20101;-78
2022/11/07 12:03:37;;;;;;;5.40;2.63;;;22.40;38.80;;;;;;6232382;28;20067;-77
2022/11/07 12:06:41;;;;;;;5.05;2.38;;;22.00;39.60;;;;;;6253637;28;20553;-79
2022/11/07 12:09:59;;;;;;;16.90;2.65;;;21.60;40.10;;;;;;6254006;28;20087;-77
2022/11/07 12:13:23;;;;;;;11.98;3.47;;;21.30;40.50;;;;;;6256018;28;20056;-78
2022/11/07 12:16:40;;;;;;;5.70;2.72;;;21.00;41.00;;;;;;6249711;28;20063;-76
2022/11/07 12:19:45;;;;;;;4.57;2.30;;;20.80;41.40;;;;;;6236362;28;20094;-77
2022/11/07 12:22:56;;;;;;;4.60;1.98;;;20.60;41.80;;;;;;6253496;28;20030;-76
2022/11/07 12:26:08;;;;;;;5.78;2.25;;;20.50;42.20;;;;;;6234444;28;20045;-77
2022/11/07 12:29:30;;;;;;;5.25;2.65;;;20.40;42.40;;;;;;6248266;28;20051;-77
2022/11/07 12:33:01;;;;;;;7.00;3.35;;;20.30;42.50;;;;;;6233759;28;20045;-77
2022/11/07 12:36:10;;;;;;;5.68;2.97;;;20.10;42.70;;;;;;6232617;28;20063;-76
2022/11/07 12:39:41;;;;;;;4.20;2.60;;;20.00;43.00;;;;;;6217450;28;20088;-78
2022/11/07 12:43:19;;;;;;;4.00;2.40;;;19.90;43.30;;;;;;6244219;28;20037;-77
2022/11/07 12:46:57;;;;;;;11.68;5.80;;;19.80;43.40;;;;;;6228682;28;20355;-77
2022/11/07 12:50:10;;;;;;;4.38;2.13;;;19.60;43.40;;;;;;6248892;28;20075;-76
2022/11/07 12:53:20;;;;;;;4.38;2.50;;;19.60;43.30;;;;;;6254547;28;20056;-76
2022/11/07 12:56:31;;;;;;;3.72;2.05;;;19.50;43.40;;;;;;6244105;28;20021;-76
2022/11/07 12:59:34;;;;;;;5.82;2.05;;;19.50;43.50;;;;;;6254605;28;20087;-77
2022/11/07 13:02:49;;;;;;;3.88;1.60;;;19.40;43.30;;;;;;6218384;28;20124;-76
2022/11/07 13:06:00;;;;;;;4.80;3.20;;;19.40;43.30;;;;;;6255089;28;20378;-76
2022/11/07 13:09:10;;;;;;;8.27;4.50;;;19.40;43.40;;;;;;6239760;28;20059;-76
2022/11/07 13:12:43;;;;;;;4.15;2.35;;;19.40;43.40;;;;;;6234801;28;20041;-76
2022/11/07 13:15:44;;;;;;;5.30;1.73;;;19.40;43.30;;;;;;6220920;28;20029;-77
2022/11/07 13:18:45;;;;;;;7.72;1.92;;;19.50;43.00;;;;;;6222476;28;20154;-76
2022/11/07 13:21:58;;;;;;;13.40;5.78;;;19.50;43.10;;;;;;6213067;28;20037;-76
2022/11/07 13:25:15;;;;;;;7.03;2.88;;;19.50;43.00;;;;;;6234479;28;20099;-77
2022/11/07 13:28:35;;;;;;;3.10;1.67;;;19.50;42.70;;;;;;6254134;28;20532;-77
2022/11/07 13:31:39;;;;;;;2.38;1.23;;;19.50;42.80;;;;;;6237094;28;20128;-75
2022/11/07 13:34:58;;;;;;;1.73;1.20;;;19.50;42.80;;;;;;6231143;28;20057;-76
2022/11/07 13:38:19;;;;;;;9.30;1.80;;;19.60;42.70;;;;;;6237114;28;20143;-76
2022/11/07 13:41:22;;;;;;;3.80;1.40;;;19.60;42.60;;;;;;6254180;28;20030;-77
2022/11/07 13:44:35;;;;;;;4.82;1.73;;;19.60;42.60;;;;;;6247389;28;20048;-76
2022/11/07 13:47:40;;;;;;;2.80;1.65;;;19.60;42.60;;;;;;6252593;28;20052;-75
2022/11/07 13:50:47;;;;;;;10.45;5.28;;;19.60;42.70;;;;;;6227358;28;20033;-77
2022/11/07 13:54:06;;;;;;;6.50;1.70;;;19.60;42.80;;;;;;6233968;28;20041;-76
2022/11/07 13:57:40;;;;;;;4.57;1.20;;;19.60;42.70;;;;;;6241308;28;20124;-76
2022/11/07 14:00:41;;;;;;;6.78;1.30;;;19.60;42.80;;;;;;6248317;28;20064;-77
2022/11/07 14:03:42;;;;;;;2.03;1.17;;;19.60;42.60;;;;;;6233535;28;20037;-76
2022/11/07 14:06:44;;;;;;;3.53;1.60;;;19.60;42.60;;;;;;6250766;28;20029;-76
2022/11/07 14:09:48;;;;;;;1.88;1.25;;;19.70;42.60;;;;;;6247253;28;20351;-78
2022/11/07 14:12:52;;;;;;;6.07;1.42;;;19.70;42.30;;;;;;6236225;28;20035;-77
2022/11/07 14:15:57;;;;;;;2.95;1.38;;;19.70;42.10;;;;;;6237318;28;20347;-77
2022/11/07 14:19:14;;;;;;;5.65;1.42;;;19.70;41.90;;;;;;6230015;28;20030;-77
2022/11/07 14:22:26;;;;;;;2.90;1.88;;;19.70;42.10;;;;;;6228350;28;20406;-76
2022/11/07 14:25:29;;;;;;;3.10;1.58;;;19.70;42.00;;;;;;6249206;28;20510;-76
2022/11/07 14:28:38;;;;;;;3.20;1.70;;;19.60;41.80;;;;;;6245705;28;20037;-75
2022/11/07 14:31:39;;;;;;;2.58;1.60;;;19.60;41.80;;;;;;6248038;28;20360;-76
2022/11/07 14:34:44;;;;;;;5.63;1.42;;;19.70;41.80;;;;;;6211301;28;20124;-77
2022/11/07 14:37:46;;;;;;;3.30;1.50;;;19.70;42.10;;;;;;6252975;28;20037;-76
2022/11/07 14:40:49;;;;;;;3.38;1.60;;;19.70;42.30;;;;;;6219326;28;20029;-76
2022/11/07 14:43:52;;;;;;;2.58;1.50;;;19.70;42.60;;;;;;6248152;28;20039;-75
2022/11/07 14:46:54;;;;;;;3.75;1.65;;;19.70;42.80;;;;;;6251991;28;20055;-76
2022/11/07 14:49:56;;;;;;;5.80;1.50;;;19.60;43.00;;;;;;6252095;28;20123;-76
2022/11/07 14:53:05;;;;;;;42.92;24.83;;;19.60;43.20;;;;;;6236991;28;20108;-76
2022/11/07 14:56:08;;;;;;;;;;;19.60;43.50;;;;;;6232849;28;20462;-76
2022/11/07 14:59:13;;;;;;;7.15;2.30;;;19.60;43.70;;;;;;6234959;28;19913;-76
2022/11/07 15:02:17;;;;;;;5.00;1.58;;;19.50;43.80;;;;;;6231059;28;20036;-76
2022/11/07 15:05:30;;;;;;;2.72;1.60;;;19.50;43.90;;;;;;6246469;28;20046;-76
2022/11/07 15:08:36;;;;;;;3.95;2.00;;;19.40;43.90;;;;;;6253217;28;20036;-77
2022/11/07 15:11:39;;;;;;;8.30;1.50;;;19.40;44.00;;;;;;6252374;28;20084;-75
2022/11/07 15:14:40;;;;;;;2.88;1.75;;;19.40;44.00;;;;;;6254342;28;20485;-75
2022/11/07 15:17:51;;;;;;;3.28;1.77;;;19.40;44.10;;;;;;6254986;28;20036;-76
2022/11/07 15:21:00;;;;;;;2.25;1.50;;;19.30;44.10;;;;;;6236337;28;20119;-76
2022/11/07 15:24:31;;;;;;;2.50;1.75;;;19.30;44.20;;;;;;6213013;28;20041;-76
2022/11/07 15:27:43;;;;;;;4.75;1.88;;;19.20;44.20;;;;;;6248115;28;20040;-78
2022/11/07 15:30:45;;;;;;;5.32;1.85;;;19.20;44.30;;;;;;6232006;28;20080;-77
2022/11/07 15:33:47;;;;;;;17.17;8.73;;;19.20;44.40;;;;;;6236650;28;20065;-76
2022/11/07 15:36:48;;;;;;;10.20;5.03;;;19.10;44.50;;;;;;6233347;28;20138;-76
2022/11/07 15:39:50;;;;;;;3.42;1.80;;;19.10;44.70;;;;;;6236139;28;20437;-76
2022/11/07 15:42:51;;;;;;;2.17;1.42;;;19.00;44.80;;;;;;6233696;28;20100;-76
2022/11/07 15:45:53;;;;;;;6.43;2.05;;;18.90;44.90;;;;;;6257264;28;20045;-77
2022/11/07 15:48:55;;;;;;;5.10;2.60;;;18.90;45.10;;;;;;6249354;28;20098;-77
2022/11/07 15:51:57;;;;;;;4.80;2.47;;;18.90;45.20;;;;;;6232719;28;20081;-77
2022/11/07 15:54:58;;;;;;;7.13;2.97;;;18.70;45.40;;;;;;6245694;28;20056;-76
2022/11/07 15:57:59;;;;;;;13.32;2.90;;;18.70;45.70;;;;;;6244741;28;20412;-77
2022/11/07 16:01:00;;;;;;;11.07;2.78;;;18.60;46.00;;;;;;6217881;28;20443;-77
2022/11/07 16:04:01;;;;;;;8.80;2.58;;;18.50;46.40;;;;;;6228237;28;20344;-77
2022/11/07 16:07:02;;;;;;;6.32;2.30;;;18.30;46.70;;;;;;6250687;28;20092;-77
2022/11/07 16:10:24;;;;;;;12.65;3.17;;;18.20;47.00;;;;;;6246941;28;20045;-76
2022/11/07 16:13:26;;;;;;;13.73;3.22;;;18.10;47.40;;;;;;6238737;28;20083;-76
2022/11/07 16:16:32;;;;;;;5.93;2.53;;;18.10;47.70;;;;;;6249181;28;20434;-76